首页
METAR-TAF:

METAR-TAF

机场 :

Phetchabun, 泰国

纬度: 16-40-33N, 经度: 101-11-42E, 海拔: 137米

当前天气观测

该预报发布于1小时和5分钟前的02:00 UTC
风速2节,风向多变
温度 31°C
湿度 66%
气压 1004 hPa
能见度10公里或以上
少量云层高于3000英尺

METAR: VTPB 220200Z VRB02KT 9999 FEW030 31/24 Q1004 NOSIG

时间: 10:05 (03:05 UTC)

预报

该预报发布于4小时和5分钟前的23:00 UTC
预报有效从22日的 00点(UTC)到 22日的 24点(UTC)
风速5节,风向南转西南
能见度10公里或以上
散云层高于3000英尺
短暂存在
从 22日的 07点(UTC)到 22日的 12点(UTC)
风速15节,风向西转西南,有时为25节阵风
能見度: 4000
少量云层高于2000英尺, 积雨云.
多云层高于2500英尺
雷暴, 雨,

TAF: VTPB 212300Z 2200/2224 20005KT 9999 SCT030 TEMPO 2207/2212 24015G25KT 4000 TSRA FEW020CB BKN025

超过4000个机场的气象观测和天气预报(METAR&TAF报告)。

可查询的气象台以黄色和红色小点在地图上表示。

将鼠标移到小点上方,可查看气象台名称。

然后点击查看天气观测和预报。

如需切换地图:点击带黑十字的绿色按钮放大地图;点击带横线的绿色按钮缩小地图;或者点击绿色箭头查看邻近地区的地图。


METAR-TAF: